createdAt,value
2019-05-07T00:02:05.633Z,44.10
2019-05-07T00:04:36.454Z,44.32
2019-05-07T00:07:08.673Z,44.36
2019-05-07T00:09:39.247Z,44.42
2019-05-07T00:12:12.434Z,44.69
2019-05-07T00:14:44.345Z,44.82
2019-05-07T00:17:14.370Z,45.20
2019-05-07T00:19:45.305Z,45.41
2019-05-07T00:22:16.102Z,45.67
2019-05-07T00:24:46.507Z,45.63
2019-05-07T00:27:17.509Z,45.35
2019-05-07T00:29:47.950Z,44.09
2019-05-07T00:32:22.077Z,44.71
2019-05-07T00:35:02.671Z,43.89
2019-05-07T00:37:52.364Z,43.77
2019-05-07T00:40:26.015Z,44.79
2019-05-07T00:43:12.045Z,45.17
2019-05-07T00:46:02.152Z,45.42
2019-05-07T00:48:32.925Z,45.41
2019-05-07T00:51:23.542Z,45.61
2019-05-07T00:53:54.676Z,45.62
2019-05-07T00:56:25.990Z,45.96
2019-05-07T00:58:56.879Z,46.04
2019-05-07T01:01:27.204Z,45.94
2019-05-07T01:03:58.013Z,46.01
2019-05-07T01:06:28.404Z,46.22
2019-05-07T01:08:58.765Z,46.32
2019-05-07T01:11:33.544Z,46.28
2019-05-07T01:14:03.729Z,46.24
2019-05-07T01:16:35.160Z,46.19
2019-05-07T01:19:06.605Z,46.07
2019-05-07T01:21:37.396Z,46.05
2019-05-07T01:24:08.125Z,46.13
2019-05-07T01:26:38.445Z,45.80
2019-05-07T01:29:09.523Z,45.67
2019-05-07T01:31:43.105Z,45.17
2019-05-07T01:34:16.477Z,44.86
2019-05-07T01:36:46.829Z,44.15
2019-05-07T01:39:18.514Z,43.93
2019-05-07T01:41:48.867Z,44.24
2019-05-07T01:44:19.160Z,43.59
2019-05-07T01:46:49.953Z,43.58
2019-05-07T01:49:23.885Z,43.56
2019-05-07T01:51:54.958Z,43.33
2019-05-07T01:54:25.363Z,42.38
2019-05-07T01:56:55.892Z,41.57
2019-05-07T01:59:27.388Z,42.29
2019-05-07T02:01:59.289Z,42.96
2019-05-07T02:04:32.694Z,43.65
2019-05-07T02:07:22.693Z,43.62
2019-05-07T02:10:06.468Z,43.38
2019-05-07T02:12:38.074Z,43.13
2019-05-07T02:15:11.832Z,42.88
2019-05-07T02:17:43.078Z,41.85
2019-05-07T02:20:16.022Z,42.18
2019-05-07T02:22:46.302Z,42.31
2019-05-07T02:25:16.851Z,42.47
2019-05-07T02:27:47.132Z,42.23
2019-05-07T02:30:19.232Z,42.50
2019-05-07T02:32:53.940Z,42.53
2019-05-07T02:35:25.601Z,42.00
2019-05-07T02:38:02.921Z,41.99
2019-05-07T02:40:43.070Z,42.49
2019-05-07T02:43:13.914Z,42.02
2019-05-07T02:45:53.734Z,42.63
2019-05-07T02:48:29.095Z,42.40
2019-05-07T02:51:03.875Z,42.43
2019-05-07T02:53:35.714Z,41.97
2019-05-07T02:56:06.151Z,42.52
2019-05-07T02:58:36.682Z,42.03
2019-05-07T03:01:08.165Z,42.54
2019-05-07T03:03:38.953Z,42.91
2019-05-07T03:06:09.270Z,43.37
2019-05-07T03:08:39.865Z,42.87
2019-05-07T03:11:10.114Z,42.62
2019-05-07T03:13:43.217Z,42.50
2019-05-07T03:16:15.418Z,42.43
2019-05-07T03:18:46.260Z,42.93
2019-05-07T03:21:18.214Z,43.30
2019-05-07T03:23:56.142Z,43.25
2019-05-07T03:26:28.189Z,43.46
2019-05-07T03:29:03.903Z,43.79
2019-05-07T03:31:37.942Z,44.59
2019-05-07T03:34:25.625Z,44.08
2019-05-07T03:36:56.922Z,44.46
2019-05-07T03:39:28.984Z,44.00
2019-05-07T03:42:03.173Z,44.79
2019-05-07T03:44:46.002Z,44.72
2019-05-07T03:47:24.170Z,44.64
2019-05-07T03:49:55.126Z,44.63
2019-05-07T03:52:27.298Z,44.58
2019-05-07T03:54:58.005Z,44.76
2019-05-07T03:57:28.801Z,44.78
2019-05-07T03:59:59.616Z,45.18
2019-05-07T04:02:32.867Z,44.82
2019-05-07T04:05:04.357Z,45.07
2019-05-07T04:07:34.320Z,45.49
2019-05-07T04:10:10.005Z,45.76
2019-05-07T04:12:43.844Z,45.66
2019-05-07T04:15:18.795Z,45.88
2019-05-07T04:17:46.617Z,46.12
2019-05-07T04:20:17.724Z,46.04
2019-05-07T04:22:53.590Z,46.33
2019-05-07T04:25:25.764Z,46.31
2019-05-07T04:28:03.458Z,46.53
2019-05-07T04:30:33.294Z,46.47
2019-05-07T04:33:08.556Z,46.37
2019-05-07T04:35:49.590Z,46.95
2019-05-07T04:38:20.022Z,46.64
2019-05-07T04:40:53.503Z,46.42
2019-05-07T04:43:23.384Z,46.68
2019-05-07T04:45:54.010Z,46.92
2019-05-07T04:48:25.509Z,46.37
2019-05-07T04:50:57.396Z,46.58
2019-05-07T04:53:27.683Z,47.15
2019-05-07T04:55:58.524Z,46.63
2019-05-07T04:58:33.875Z,46.84
2019-05-07T05:01:04.322Z,46.78
2019-05-07T05:03:39.164Z,46.32
2019-05-07T05:06:08.993Z,46.40
2019-05-07T05:08:40.186Z,46.49
2019-05-07T05:11:12.739Z,46.46
2019-05-07T05:13:44.479Z,46.64
2019-05-07T05:16:25.579Z,46.02
2019-05-07T05:18:57.032Z,46.71
2019-05-07T05:21:44.145Z,46.83
2019-05-07T05:24:22.198Z,46.70
2019-05-07T05:26:52.701Z,46.80
2019-05-07T05:29:25.355Z,46.39
2019-05-07T05:31:55.658Z,46.50
2019-05-07T05:34:27.329Z,46.50
2019-05-07T05:36:57.639Z,46.86
2019-05-07T05:39:28.632Z,46.29
2019-05-07T05:42:02.409Z,46.05
2019-05-07T05:44:35.582Z,46.36
2019-05-07T05:47:07.289Z,46.20
2019-05-07T05:49:38.398Z,45.86
2019-05-07T05:52:12.346Z,45.65
2019-05-07T05:54:44.388Z,45.19
2019-05-07T05:57:16.366Z,45.08
2019-05-07T06:00:05.679Z,44.77
2019-05-07T06:02:37.718Z,44.68
2019-05-07T06:05:27.623Z,44.50
2019-05-07T06:08:04.131Z,44.36
2019-05-07T06:10:42.542Z,44.92
2019-05-07T06:13:20.387Z,44.18
2019-05-07T06:16:03.085Z,43.94
2019-05-07T06:18:52.605Z,44.10
2019-05-07T06:21:26.213Z,44.03
2019-05-07T06:24:02.236Z,43.93
2019-05-07T06:26:33.091Z,43.66
2019-05-07T06:29:03.816Z,43.54
2019-05-07T06:31:34.340Z,43.74
2019-05-07T06:34:05.092Z,43.72
2019-05-07T06:36:38.482Z,43.62
2019-05-07T06:39:18.267Z,43.21
2019-05-07T06:42:08.101Z,43.44
2019-05-07T06:44:38.411Z,43.63
2019-05-07T06:47:09.462Z,43.78
2019-05-07T06:49:40.183Z,43.53
2019-05-07T06:52:12.223Z,43.29
2019-05-07T06:54:42.857Z,43.37
2019-05-07T06:57:13.812Z,43.33
2019-05-07T06:59:46.119Z,43.29
2019-05-07T07:02:28.078Z,42.88
2019-05-07T07:05:02.835Z,42.00
2019-05-07T07:07:37.668Z,41.54
2019-05-07T07:10:12.010Z,41.08
2019-05-07T07:12:42.618Z,40.33
2019-05-07T07:15:13.320Z,40.12
2019-05-07T07:17:44.720Z,39.94
2019-05-07T07:20:16.579Z,40.22
2019-05-07T07:22:48.579Z,40.13
2019-05-07T07:25:18.932Z,39.51
2019-05-07T07:27:49.228Z,39.80
2019-05-07T07:30:37.470Z,39.85
2019-05-07T07:33:12.020Z,39.99
2019-05-07T07:35:42.817Z,39.71
2019-05-07T07:38:33.785Z,39.90
2019-05-07T07:41:12.764Z,40.53
2019-05-07T07:43:43.651Z,40.32
2019-05-07T07:46:16.524Z,40.03
2019-05-07T07:48:46.645Z,39.46
2019-05-07T07:51:18.618Z,39.13
2019-05-07T07:53:49.281Z,38.89
2019-05-07T07:56:49.074Z,37.93
2019-05-07T07:59:29.555Z,37.14
2019-05-07T08:02:07.966Z,36.33
2019-05-07T08:04:39.267Z,35.93
2019-05-07T08:07:12.216Z,37.04
2019-05-07T08:09:42.962Z,37.28
2019-05-07T08:12:15.779Z,36.70
2019-05-07T08:14:46.139Z,36.44
2019-05-07T08:17:16.469Z,35.40
2019-05-07T08:19:46.822Z,34.27
2019-05-07T08:22:17.589Z,33.46
2019-05-07T08:24:48.038Z,32.48
2019-05-07T08:27:18.394Z,32.26
2019-05-07T08:29:48.743Z,31.52
2019-05-07T08:32:27.971Z,30.81
2019-05-07T08:35:18.015Z,31.12
2019-05-07T08:37:48.948Z,32.08
2019-05-07T08:40:22.078Z,31.87
2019-05-07T08:42:54.154Z,31.02
2019-05-07T08:45:43.188Z,31.61
2019-05-07T08:48:15.896Z,31.05
2019-05-07T08:50:46.435Z,31.45
2019-05-07T08:53:17.110Z,31.65
2019-05-07T08:55:48.333Z,31.70
2019-05-07T08:58:19.887Z,30.63
2019-05-07T09:00:52.302Z,30.72
2019-05-07T09:03:42.958Z,31.14
2019-05-07T09:06:14.399Z,31.51
2019-05-07T09:08:44.727Z,32.03
2019-05-07T09:11:17.506Z,31.58
2019-05-07T09:13:47.896Z,31.36
2019-05-07T09:16:18.424Z,31.18
2019-05-07T09:18:50.215Z,31.18
2019-05-07T09:21:22.712Z,30.99
2019-05-07T09:23:54.466Z,31.14
2019-05-07T09:26:32.935Z,31.93
2019-05-07T09:29:05.945Z,31.45
2019-05-07T09:31:38.220Z,31.80
2019-05-07T09:34:08.576Z,31.37
2019-05-07T09:36:58.848Z,31.49
2019-05-07T09:39:32.415Z,31.10
2019-05-07T09:42:02.852Z,31.58
2019-05-07T09:44:33.204Z,31.49
2019-05-07T09:47:03.962Z,31.70
2019-05-07T09:49:34.352Z,32.08
2019-05-07T09:52:06.077Z,31.66
2019-05-07T09:54:36.982Z,31.67
2019-05-07T09:57:22.751Z,31.84
2019-05-07T09:59:39.821Z,32.38
2019-05-07T10:02:12.303Z,32.40
2019-05-07T10:04:43.650Z,32.35
2019-05-07T10:07:14.063Z,32.65
2019-05-07T10:09:44.382Z,32.68
2019-05-07T10:12:35.493Z,32.69
2019-05-07T10:15:07.312Z,32.47
2019-05-07T10:17:39.633Z,32.61
2019-05-07T10:20:19.241Z,32.28
2019-05-07T10:22:43.790Z,31.38
2019-05-07T10:25:14.479Z,31.45
2019-05-07T10:27:45.418Z,31.13
2019-05-07T10:30:16.449Z,30.99
2019-05-07T10:32:52.495Z,31.02
2019-05-07T10:35:22.966Z,30.63
2019-05-07T10:37:55.310Z,30.54
2019-05-07T10:40:26.475Z,30.50
2019-05-07T10:43:01.490Z,30.40
2019-05-07T10:45:42.170Z,30.09
2019-05-07T10:48:14.851Z,29.61
2019-05-07T10:50:46.794Z,28.89
2019-05-07T10:53:17.075Z,29.37
2019-05-07T10:55:47.424Z,29.07
2019-05-07T10:58:17.864Z,28.98
2019-05-07T11:00:48.678Z,28.98
2019-05-07T11:03:21.905Z,28.78
2019-05-07T11:05:52.344Z,28.86
2019-05-07T11:08:25.567Z,28.70
2019-05-07T11:10:55.675Z,29.01
2019-05-07T11:13:27.424Z,28.66
2019-05-07T11:15:59.844Z,28.32
2019-05-07T11:18:51.614Z,28.39
2019-05-07T11:21:33.459Z,27.77
2019-05-07T11:24:03.699Z,27.26
2019-05-07T11:26:36.034Z,28.14
2019-05-07T11:29:06.308Z,28.58
2019-05-07T11:31:36.905Z,28.54
2019-05-07T11:34:08.996Z,28.92
2019-05-07T11:36:40.258Z,28.57
2019-05-07T11:39:12.237Z,29.19
2019-05-07T11:41:47.923Z,29.42
2019-05-07T11:44:20.002Z,28.89
2019-05-07T11:47:02.981Z,28.80
2019-05-07T11:49:52.469Z,28.80
2019-05-07T11:52:24.444Z,29.31
2019-05-07T11:54:55.122Z,28.42
2019-05-07T11:57:25.683Z,28.36
2019-05-07T11:59:56.049Z,28.14
2019-05-07T12:02:26.759Z,28.08
2019-05-07T12:04:57.107Z,28.05
2019-05-07T12:07:28.386Z,27.64
2019-05-07T12:10:02.836Z,27.94
2019-05-07T12:12:32.558Z,27.96
2019-05-07T12:15:07.079Z,28.06
2019-05-07T12:17:39.524Z,28.92
2019-05-07T12:20:12.384Z,28.78
2019-05-07T12:22:48.277Z,27.32
2019-05-07T12:25:21.321Z,26.93
2019-05-07T12:27:54.251Z,26.28
2019-05-07T12:30:45.634Z,25.84
2019-05-07T12:33:17.547Z,26.90
2019-05-07T12:35:48.209Z,27.79
2019-05-07T12:38:21.790Z,28.10
2019-05-07T12:40:52.427Z,28.08
2019-05-07T12:43:24.315Z,28.04
2019-05-07T12:45:55.804Z,27.43
2019-05-07T12:48:26.555Z,27.94
2019-05-07T12:50:57.630Z,28.16
2019-05-07T12:53:31.874Z,28.33
2019-05-07T12:56:03.846Z,28.21
2019-05-07T12:58:34.145Z,28.00
2019-05-07T13:01:07.411Z,28.20
2019-05-07T13:03:42.782Z,27.61
2019-05-07T13:06:13.372Z,28.20
2019-05-07T13:08:44.027Z,28.50
2019-05-07T13:11:14.407Z,27.97
2019-05-07T13:13:44.772Z,27.76
2019-05-07T13:16:15.745Z,27.54
2019-05-07T13:18:46.679Z,27.75
2019-05-07T13:21:17.002Z,27.94
2019-05-07T13:23:47.311Z,27.66
2019-05-07T13:26:17.626Z,28.05
2019-05-07T13:28:48.949Z,28.21
2019-05-07T13:31:22.739Z,28.28
2019-05-07T13:33:56.403Z,28.45
2019-05-07T13:36:27.744Z,28.66
2019-05-07T13:39:07.385Z,28.51
2019-05-07T13:41:43.972Z,28.36
2019-05-07T13:44:25.354Z,28.54
2019-05-07T13:47:02.725Z,28.56
2019-05-07T13:49:33.874Z,28.50
2019-05-07T13:52:05.932Z,28.58
2019-05-07T13:54:38.108Z,27.91
2019-05-07T13:57:08.934Z,27.83
2019-05-07T13:59:42.427Z,27.51
2019-05-07T14:02:15.648Z,27.69
2019-05-07T14:04:46.127Z,27.75
2019-05-07T14:07:16.673Z,27.87
2019-05-07T14:09:48.125Z,27.59
2019-05-07T14:12:20.083Z,27.75
2019-05-07T14:14:52.806Z,27.49
2019-05-07T14:17:23.912Z,26.55
2019-05-07T14:19:54.402Z,26.77
2019-05-07T14:22:25.842Z,26.17
2019-05-07T14:24:57.646Z,26.53
2019-05-07T14:27:28.505Z,26.27
2019-05-07T14:29:59.683Z,26.22
2019-05-07T14:32:31.603Z,26.58
2019-05-07T14:35:05.026Z,26.21
2019-05-07T14:37:37.236Z,26.14
2019-05-07T14:40:09.445Z,26.47
2019-05-07T14:42:41.935Z,26.58
2019-05-07T14:45:14.153Z,26.70
2019-05-07T14:47:45.855Z,26.57
2019-05-07T14:50:17.145Z,26.80
2019-05-07T14:52:47.574Z,27.11
2019-05-07T14:55:18.507Z,27.21
2019-05-07T14:57:49.858Z,27.24
2019-05-07T15:00:22.578Z,27.56
2019-05-07T15:02:53.902Z,27.87
2019-05-07T15:05:27.238Z,27.78
2019-05-07T15:08:08.274Z,28.05
2019-05-07T15:10:32.587Z,27.88
2019-05-07T15:13:03.255Z,28.08
2019-05-07T15:15:33.647Z,28.49
2019-05-07T15:18:07.149Z,28.48
2019-05-07T15:20:37.596Z,28.41
2019-05-07T15:23:27.332Z,28.72
2019-05-07T15:25:58.597Z,29.00
2019-05-07T15:28:34.687Z,29.06
2019-05-07T15:31:09.635Z,29.65
2019-05-07T15:33:41.837Z,29.69
2019-05-07T15:36:12.518Z,29.69
2019-05-07T15:38:43.610Z,29.96
2019-05-07T15:41:15.913Z,29.98
2019-05-07T15:43:46.711Z,29.84
2019-05-07T15:46:17.023Z,29.94
2019-05-07T15:48:48.433Z,30.46
2019-05-07T15:51:19.049Z,30.63
2019-05-07T15:53:52.334Z,30.91
2019-05-07T15:56:22.950Z,31.18
2019-05-07T15:58:53.828Z,31.28
2019-05-07T16:01:24.144Z,31.72
2019-05-07T16:03:55.208Z,31.77
2019-05-07T16:06:25.896Z,32.00
2019-05-07T16:08:58.696Z,32.10
2019-05-07T16:11:32.281Z,32.47
2019-05-07T16:14:06.815Z,33.08
2019-05-07T16:16:47.479Z,33.27
2019-05-07T16:19:26.707Z,33.54
2019-05-07T16:21:59.594Z,33.79
2019-05-07T16:24:31.920Z,33.41
2019-05-07T16:27:05.119Z,32.54
2019-05-07T16:29:35.886Z,33.11
2019-05-07T16:32:07.198Z,33.38
2019-05-07T16:34:37.961Z,33.51
2019-05-07T16:37:08.385Z,34.04
2019-05-07T16:39:38.727Z,34.43
2019-05-07T16:42:10.570Z,34.52
2019-05-07T16:44:41.756Z,34.34
2019-05-07T16:47:13.777Z,34.69
2019-05-07T16:49:44.708Z,34.86
2019-05-07T16:52:17.960Z,35.50
2019-05-07T16:54:48.256Z,36.83
2019-05-07T16:57:36.368Z,37.43
2019-05-07T17:00:09.754Z,39.23
2019-05-07T17:02:45.817Z,40.14
2019-05-07T17:05:16.650Z,39.87
2019-05-07T17:07:57.756Z,41.79
2019-05-07T17:10:27.995Z,40.39
2019-05-07T17:12:58.742Z,43.81
2019-05-07T17:15:30.091Z,42.86
2019-05-07T17:18:02.509Z,42.97
2019-05-07T17:20:33.062Z,45.27
2019-05-07T17:23:03.334Z,46.90
2019-05-07T17:25:39.607Z,47.21
2019-05-07T17:28:12.623Z,46.49
2019-05-07T17:30:43.219Z,46.67
2019-05-07T17:33:13.529Z,48.38
2019-05-07T17:35:46.269Z,45.61
2019-05-07T17:38:17.031Z,44.89
2019-05-07T17:40:47.809Z,45.59
2019-05-07T17:43:18.576Z,45.74
2019-05-07T17:45:49.663Z,46.73
2019-05-07T17:48:20.256Z,44.77
2019-05-07T17:50:59.038Z,44.60
2019-05-07T17:53:29.354Z,44.49
2019-05-07T17:56:02.113Z,44.29
2019-05-07T17:58:33.999Z,45.45
2019-05-07T18:01:05.318Z,44.49
2019-05-07T18:03:38.276Z,45.16
2019-05-07T18:06:09.860Z,45.02
2019-05-07T18:08:40.268Z,43.89
2019-05-07T18:11:20.162Z,44.72
2019-05-07T18:13:42.921Z,43.74
2019-05-07T18:16:24.567Z,43.54
2019-05-07T18:18:54.797Z,44.38
2019-05-07T18:21:25.638Z,44.50
2019-05-07T18:23:56.060Z,45.57
2019-05-07T18:26:30.710Z,45.62
2019-05-07T18:28:59.247Z,46.06
2019-05-07T18:31:34.546Z,46.24
2019-05-07T18:34:04.921Z,45.56
2019-05-07T18:36:35.650Z,45.28
2019-05-07T18:39:07.988Z,44.50
2019-05-07T18:41:38.454Z,44.36
2019-05-07T18:44:12.928Z,44.80
2019-05-07T18:46:41.590Z,45.33
2019-05-07T18:49:12.925Z,45.78
2019-05-07T18:51:46.080Z,46.88
2019-05-07T18:54:27.737Z,47.52
2019-05-07T18:56:48.974Z,46.77
2019-05-07T18:59:22.166Z,47.47
2019-05-07T19:01:55.885Z,47.63
2019-05-07T19:04:26.357Z,47.87
2019-05-07T19:06:57.148Z,48.83
2019-05-07T19:09:28.194Z,48.68
2019-05-07T19:11:58.600Z,48.62
2019-05-07T19:14:28.934Z,47.40
2019-05-07T19:16:59.759Z,48.81
2019-05-07T19:19:32.754Z,49.78
2019-05-07T19:22:04.204Z,49.07
2019-05-07T19:24:44.656Z,50.20
2019-05-07T19:27:07.022Z,50.66
2019-05-07T19:29:37.417Z,51.74
2019-05-07T19:32:12.114Z,52.44
2019-05-07T19:34:42.417Z,53.02
2019-05-07T19:37:14.105Z,51.98
2019-05-07T19:39:45.108Z,53.87
2019-05-07T19:42:17.007Z,53.90
2019-05-07T19:44:47.661Z,52.73
2019-05-07T19:47:18.575Z,52.09
2019-05-07T19:49:48.881Z,52.35
2019-05-07T19:52:23.256Z,52.73
2019-05-07T19:55:01.286Z,54.09
2019-05-07T19:57:27.447Z,55.43
2019-05-07T19:59:58.580Z,54.62
2019-05-07T20:02:33.729Z,53.09
2019-05-07T20:05:05.126Z,54.17
2019-05-07T20:07:35.674Z,55.37
2019-05-07T20:10:09.206Z,53.34
2019-05-07T20:12:42.774Z,55.08
2019-05-07T20:15:13.929Z,54.06
2019-05-07T20:17:44.869Z,54.38
2019-05-07T20:20:17.562Z,54.80
2019-05-07T20:22:48.078Z,54.26
2019-05-07T20:25:19.265Z,56.17
2019-05-07T20:27:52.589Z,56.20
2019-05-07T20:30:22.973Z,57.36
2019-05-07T20:32:53.565Z,57.47
2019-05-07T20:35:23.881Z,57.47
2019-05-07T20:37:54.763Z,58.13
2019-05-07T20:40:25.149Z,57.78
2019-05-07T20:42:56.451Z,58.43
2019-05-07T20:45:26.769Z,57.98
2019-05-07T20:47:57.655Z,57.77
2019-05-07T20:50:27.935Z,57.31
2019-05-07T20:53:01.892Z,57.37
2019-05-07T20:55:36.256Z,57.39
2019-05-07T20:58:07.848Z,57.35
2019-05-07T21:00:39.640Z,58.26
2019-05-07T21:03:13.205Z,57.83
2019-05-07T21:05:43.943Z,57.46
2019-05-07T21:08:15.448Z,57.01
2019-05-07T21:10:46.706Z,56.79
2019-05-07T21:13:27.448Z,57.68
2019-05-07T21:15:49.070Z,59.17
2019-05-07T21:18:19.650Z,58.21
2019-05-07T21:20:49.893Z,58.22
2019-05-07T21:23:22.806Z,57.91
2019-05-07T21:25:53.232Z,58.71
2019-05-07T21:28:24.238Z,57.94
2019-05-07T21:30:55.016Z,57.73
2019-05-07T21:33:25.887Z,57.78
2019-05-07T21:35:56.409Z,58.14
2019-05-07T21:38:26.841Z,57.86
2019-05-07T21:40:58.392Z,58.39
2019-05-07T21:43:29.080Z,58.67
2019-05-07T21:46:02.274Z,57.87
2019-05-07T21:48:32.876Z,59.87
2019-05-07T21:51:03.879Z,60.14
2019-05-07T21:53:37.047Z,59.88
2019-05-07T21:56:12.216Z,60.01
2019-05-07T21:58:46.722Z,60.91
2019-05-07T22:01:35.907Z,60.80
2019-05-07T22:04:07.814Z,61.10
2019-05-07T22:06:38.581Z,61.11
2019-05-07T22:09:10.103Z,60.18
2019-05-07T22:11:42.614Z,61.06
2019-05-07T22:14:13.311Z,60.45
2019-05-07T22:16:43.991Z,60.06
2019-05-07T22:19:14.653Z,60.69
2019-05-07T22:21:45.285Z,61.30
2019-05-07T22:24:16.370Z,61.58
2019-05-07T22:26:47.172Z,62.33
2019-05-07T22:29:17.487Z,61.96
2019-05-07T22:31:49.493Z,61.51
2019-05-07T22:34:30.667Z,63.07
2019-05-07T22:37:04.728Z,62.90
2019-05-07T22:39:49.605Z,62.03
2019-05-07T22:42:24.773Z,63.08
2019-05-07T22:44:55.872Z,63.58
2019-05-07T22:47:26.554Z,63.07
2019-05-07T22:49:57.687Z,63.09
2019-05-07T22:52:28.029Z,63.81
2019-05-07T22:54:59.667Z,63.44
2019-05-07T22:57:34.317Z,64.16
2019-05-07T23:00:12.252Z,63.86
2019-05-07T23:02:44.515Z,64.31
2019-05-07T23:05:15.116Z,64.46
2019-05-07T23:07:45.449Z,64.55
2019-05-07T23:10:16.558Z,64.27
2019-05-07T23:12:47.595Z,64.29
2019-05-07T23:15:19.181Z,64.22
2019-05-07T23:17:49.462Z,64.55
2019-05-07T23:20:24.140Z,64.18
2019-05-07T23:22:53.492Z,63.96
2019-05-07T23:25:26.473Z,63.78
2019-05-07T23:27:56.732Z,64.18
2019-05-07T23:30:33.121Z,64.20
2019-05-07T23:33:04.469Z,64.60
2019-05-07T23:35:35.650Z,65.19
2019-05-07T23:38:05.894Z,64.34
2019-05-07T23:40:39.314Z,64.61
2019-05-07T23:43:14.417Z,64.56
2019-05-07T23:45:44.776Z,64.72
2019-05-07T23:48:16.436Z,64.89
2019-05-07T23:50:47.126Z,64.60
2019-05-07T23:53:18.514Z,65.25
2019-05-07T23:55:51.974Z,64.56
2019-05-07T23:58:22.988Z,64.45
